createdAt,value
2022-11-21T00:00:20.303Z,-1.00
2022-11-21T00:02:46.652Z,-1.06
2022-11-21T00:05:12.994Z,-0.98
2022-11-21T00:07:39.352Z,-1.12
2022-11-21T00:10:06.375Z,-1.08
2022-11-21T00:12:32.720Z,-1.08
2022-11-21T00:14:59.087Z,-1.06
2022-11-21T00:17:25.494Z,-1.06
2022-11-21T00:19:51.859Z,-1.07
2022-11-21T00:22:18.172Z,-1.21
2022-11-21T00:24:44.672Z,-1.22
2022-11-21T00:27:10.986Z,-1.15
2022-11-21T00:29:37.367Z,-1.25
2022-11-21T00:32:03.719Z,-1.23
2022-11-21T00:34:30.177Z,-1.23
2022-11-21T00:36:56.501Z,-1.18
2022-11-21T00:39:22.871Z,-1.28
2022-11-21T00:41:49.197Z,-1.26
2022-11-21T00:44:15.582Z,-1.18
2022-11-21T00:46:42.137Z,-1.06
2022-11-21T00:49:08.494Z,-1.10
2022-11-21T00:51:34.821Z,-1.04
2022-11-21T00:54:01.226Z,-1.04
2022-11-21T00:56:27.561Z,-1.08
2022-11-21T00:58:53.926Z,-1.12
2022-11-21T01:01:20.365Z,-1.05
2022-11-21T01:03:46.832Z,-1.08
2022-11-21T01:06:14.111Z,-1.15
2022-11-21T01:08:41.224Z,-1.15
2022-11-21T01:11:11.724Z,-0.99
2022-11-21T01:13:38.145Z,-0.97
2022-11-21T01:16:05.178Z,-1.02
2022-11-21T01:18:31.494Z,-1.00
2022-11-21T01:21:04.626Z,-1.03
2022-11-21T01:23:30.955Z,-1.14
2022-11-21T01:26:04.223Z,-1.22
2022-11-21T01:28:30.632Z,-1.17
2022-11-21T01:31:03.038Z,-1.15
2022-11-21T01:33:29.345Z,-1.08
2022-11-21T01:35:55.706Z,-1.15
2022-11-21T01:38:22.143Z,-1.20
2022-11-21T01:40:48.522Z,-1.07
2022-11-21T01:43:15.180Z,-1.07
2022-11-21T01:46:07.983Z,-1.04
2022-11-21T01:48:43.476Z,-1.24
2022-11-21T01:51:09.793Z,-1.12
2022-11-21T01:53:36.115Z,-1.16
2022-11-21T01:56:02.480Z,-1.16
2022-11-21T01:58:29.114Z,-1.21
2022-11-21T02:00:55.499Z,-1.28
2022-11-21T02:03:22.899Z,-1.28
2022-11-21T02:05:49.286Z,-1.28
2022-11-21T02:08:19.461Z,-1.30
2022-11-21T02:11:09.078Z,-1.26
2022-11-21T02:13:35.461Z,-1.20
2022-11-21T02:16:02.120Z,-1.09
2022-11-21T02:18:28.522Z,-1.07
2022-11-21T02:20:59.384Z,-1.14
2022-11-21T02:23:33.101Z,-1.16
2022-11-21T02:25:59.434Z,-0.95
2022-11-21T02:28:26.921Z,-0.96
2022-11-21T02:30:53.256Z,-1.04
2022-11-21T02:33:19.829Z,-1.07
2022-11-21T02:35:55.289Z,-1.13
2022-11-21T02:38:31.866Z,-1.15
2022-11-21T02:41:02.865Z,-1.19
2022-11-21T02:43:30.715Z,-1.14
2022-11-21T02:45:57.850Z,-1.12
2022-11-21T02:48:24.319Z,-1.11
2022-11-21T02:50:50.688Z,-1.12
2022-11-21T02:53:17.725Z,-1.17
2022-11-21T02:55:44.238Z,-1.12
2022-11-21T02:58:10.765Z,-1.33
2022-11-21T03:00:38.459Z,-1.23
2022-11-21T03:03:04.955Z,-1.24
2022-11-21T03:05:31.321Z,-1.15
2022-11-21T03:07:57.903Z,-1.34
2022-11-21T03:10:24.282Z,-1.19
2022-11-21T03:12:50.613Z,-1.31
2022-11-21T03:15:17.090Z,-1.26
2022-11-21T03:17:43.406Z,-1.27
2022-11-21T03:20:09.978Z,-1.14
2022-11-21T03:22:36.367Z,-1.09
2022-11-21T03:25:02.715Z,-1.20
2022-11-21T03:27:29.032Z,-1.13
2022-11-21T03:29:55.386Z,-1.14
2022-11-21T03:32:21.715Z,-1.20
2022-11-21T03:34:48.060Z,-1.32
2022-11-21T03:37:14.382Z,-1.41
2022-11-21T03:39:40.718Z,-1.51
2022-11-21T03:42:07.074Z,-1.54
2022-11-21T03:44:33.424Z,-1.54
2022-11-21T03:46:59.771Z,-1.48
2022-11-21T03:49:26.093Z,-1.55
2022-11-21T03:51:52.631Z,-1.71
2022-11-21T03:54:18.988Z,-1.85
2022-11-21T03:56:45.312Z,-1.85
2022-11-21T03:59:11.660Z,-2.01
2022-11-21T04:01:38.051Z,-2.05
2022-11-21T04:04:04.781Z,-1.74
2022-11-21T04:06:33.349Z,-1.71
2022-11-21T04:08:59.701Z,-1.89
2022-11-21T04:11:26.167Z,-1.88
2022-11-21T04:13:52.675Z,-1.69
2022-11-21T04:16:19.116Z,-1.72
2022-11-21T04:18:45.438Z,-1.78
2022-11-21T04:21:11.806Z,-1.77
2022-11-21T04:23:38.136Z,-1.77
2022-11-21T04:26:04.472Z,-1.72
2022-11-21T04:28:31.397Z,-1.72
2022-11-21T04:31:03.724Z,-1.81
2022-11-21T04:33:32.108Z,-1.87
2022-11-21T04:35:58.465Z,-1.70
2022-11-21T04:38:24.874Z,-1.69
2022-11-21T04:40:51.218Z,-1.81
2022-11-21T04:43:17.571Z,-1.85
2022-11-21T04:45:44.649Z,-1.68
2022-11-21T04:48:11.267Z,-1.61
2022-11-21T04:50:37.935Z,-1.64
2022-11-21T04:53:04.258Z,-1.66
2022-11-21T04:55:31.048Z,-1.77
2022-11-21T04:57:57.482Z,-1.78
2022-11-21T05:00:24.589Z,-1.79
2022-11-21T05:02:51.270Z,-1.76
2022-11-21T05:05:17.624Z,-1.75
2022-11-21T05:07:43.980Z,-1.78
2022-11-21T05:10:10.360Z,-1.76
2022-11-21T05:12:55.445Z,-1.86
2022-11-21T05:15:24.581Z,-1.82
2022-11-21T05:17:51.455Z,-2.01
2022-11-21T05:20:18.838Z,-1.97
2022-11-21T05:22:49.732Z,-2.00
2022-11-21T05:25:16.417Z,-2.22
2022-11-21T05:27:42.814Z,-2.25
2022-11-21T05:30:09.498Z,-2.45
2022-11-21T05:32:35.823Z,-2.42
2022-11-21T05:35:02.301Z,-2.33
2022-11-21T05:37:28.627Z,-2.26
2022-11-21T05:39:54.969Z,-2.23
2022-11-21T05:42:41.264Z,-2.36
2022-11-21T05:45:07.987Z,-2.43
2022-11-21T05:47:34.403Z,-2.59
2022-11-21T05:50:00.722Z,-2.65
2022-11-21T05:52:27.890Z,-2.91
2022-11-21T05:54:54.219Z,-3.13
2022-11-21T05:57:20.539Z,-2.89
2022-11-21T05:59:46.884Z,-2.93
2022-11-21T06:02:32.031Z,-2.86
2022-11-21T06:04:58.358Z,-2.76
2022-11-21T06:07:24.745Z,-2.74
2022-11-21T06:09:51.106Z,-2.65
2022-11-21T06:12:21.411Z,-2.48
2022-11-21T06:14:50.463Z,-2.57
2022-11-21T06:17:16.843Z,-2.60
2022-11-21T06:19:43.230Z,-2.53
2022-11-21T06:22:09.581Z,-2.45
2022-11-21T06:24:35.899Z,-2.51
2022-11-21T06:27:02.247Z,-2.57
2022-11-21T06:29:28.578Z,-2.54
2022-11-21T06:31:56.001Z,-2.47
2022-11-21T06:34:22.334Z,-2.67
2022-11-21T06:36:49.477Z,-2.64
2022-11-21T06:39:16.182Z,-2.64
2022-11-21T06:41:42.546Z,-2.67
2022-11-21T06:44:08.937Z,-2.64
2022-11-21T06:46:35.277Z,-2.60
2022-11-21T06:49:01.641Z,-2.54
2022-11-21T06:51:27.971Z,-2.59
2022-11-21T06:53:57.806Z,-2.49
2022-11-21T06:56:24.425Z,-2.55
2022-11-21T06:58:50.757Z,-2.64
2022-11-21T07:01:17.247Z,-2.84
2022-11-21T07:03:43.603Z,-2.81
2022-11-21T07:06:10.010Z,-2.86
2022-11-21T07:08:36.474Z,-2.77
2022-11-21T07:11:24.292Z,-2.91
2022-11-21T07:13:49.878Z,-2.76
2022-11-21T07:16:16.266Z,-2.74
2022-11-21T07:18:42.721Z,-2.61
2022-11-21T07:21:09.262Z,-2.63
2022-11-21T07:23:35.646Z,-2.60
2022-11-21T07:26:02.463Z,-2.42
2022-11-21T07:28:29.837Z,-2.34
2022-11-21T07:30:57.036Z,-2.31
2022-11-21T07:33:23.361Z,-2.42
2022-11-21T07:35:49.705Z,-2.27
2022-11-21T07:38:16.051Z,-2.31
2022-11-21T07:40:42.410Z,-2.35
2022-11-21T07:43:11.085Z,-2.30
2022-11-21T07:45:37.574Z,-2.12
2022-11-21T07:48:04.660Z,-2.18
2022-11-21T07:50:31.035Z,-2.06
2022-11-21T07:52:58.106Z,-2.07
2022-11-21T07:55:24.514Z,-1.99
2022-11-21T07:58:17.305Z,-1.94
2022-11-21T08:00:43.806Z,-1.98
2022-11-21T08:03:12.033Z,-2.01
2022-11-21T08:05:39.002Z,-1.85
2022-11-21T08:08:08.415Z,-1.67
2022-11-21T08:10:37.257Z,-1.53
2022-11-21T08:13:03.888Z,-1.44
2022-11-21T08:15:30.229Z,-1.44
2022-11-21T08:17:56.556Z,-1.38
2022-11-21T08:20:22.942Z,-1.27
2022-11-21T08:22:49.294Z,-1.35
2022-11-21T08:25:15.615Z,-1.34
2022-11-21T08:27:42.306Z,-1.16
2022-11-21T08:30:09.277Z,-0.93
2022-11-21T08:32:35.751Z,-0.88
2022-11-21T08:35:02.157Z,-0.86
2022-11-21T08:37:29.326Z,-0.80
2022-11-21T08:39:56.072Z,-0.73
2022-11-21T08:42:22.453Z,-0.81
2022-11-21T08:44:48.813Z,-0.77
2022-11-21T08:47:15.156Z,-0.71
2022-11-21T08:49:44.440Z,-0.66
2022-11-21T08:52:10.801Z,-0.59
2022-11-21T08:54:37.130Z,-0.54
2022-11-21T08:57:03.524Z,-0.66
2022-11-21T08:59:29.842Z,-0.50
2022-11-21T09:01:56.304Z,-0.42
2022-11-21T09:04:22.636Z,-0.38
2022-11-21T09:06:49.020Z,-0.41
2022-11-21T09:09:18.277Z,-0.25
2022-11-21T09:11:47.129Z,-0.28
2022-11-21T09:14:32.135Z,-0.15
2022-11-21T09:17:17.455Z,-0.16
2022-11-21T09:19:43.809Z,-0.21
2022-11-21T09:22:10.245Z,-0.29
2022-11-21T09:24:36.968Z,-0.12
2022-11-21T09:27:03.354Z,-0.14
2022-11-21T09:29:29.938Z,0.00
2022-11-21T09:31:56.380Z,-0.13
2022-11-21T09:34:22.696Z,-0.03
2022-11-21T09:36:49.061Z,-0.16
2022-11-21T09:39:15.465Z,-0.14
2022-11-21T09:41:57.250Z,-0.06
2022-11-21T09:44:32.629Z,-0.05
2022-11-21T09:47:22.896Z,-0.12
2022-11-21T09:50:09.449Z,0.05
2022-11-21T09:52:56.350Z,0.39
2022-11-21T09:55:52.126Z,0.27
2022-11-21T09:58:37.105Z,0.25
2022-11-21T10:01:03.585Z,0.22
2022-11-21T10:03:30.785Z,0.07
2022-11-21T10:05:57.109Z,0.06
2022-11-21T10:08:27.488Z,0.22
2022-11-21T10:10:54.960Z,0.25
2022-11-21T10:13:28.875Z,0.44
2022-11-21T10:15:57.460Z,0.55
2022-11-21T10:18:42.373Z,0.59
2022-11-21T10:21:26.025Z,0.68
2022-11-21T10:24:08.852Z,0.83
2022-11-21T10:26:42.355Z,1.21
2022-11-21T10:29:27.745Z,1.45
2022-11-21T10:31:54.673Z,1.56
2022-11-21T10:34:22.634Z,1.48
2022-11-21T10:36:49.940Z,1.21
2022-11-21T10:39:25.003Z,1.23
2022-11-21T10:41:53.377Z,1.28
2022-11-21T10:44:47.609Z,1.21
2022-11-21T10:47:27.324Z,1.27
2022-11-21T10:49:55.599Z,1.28
2022-11-21T10:52:22.062Z,1.30
2022-11-21T10:55:03.739Z,1.14
2022-11-21T10:57:48.709Z,0.77
2022-11-21T11:00:16.485Z,0.99
2022-11-21T11:02:43.511Z,1.31
2022-11-21T11:05:17.369Z,1.54
2022-11-21T11:07:43.753Z,1.33
2022-11-21T11:10:26.911Z,1.36
2022-11-21T11:13:43.973Z,1.34
2022-11-21T11:15:58.875Z,1.26
2022-11-21T11:18:25.267Z,1.26
2022-11-21T11:20:51.753Z,1.42
2022-11-21T11:23:21.066Z,1.67
2022-11-21T11:25:48.154Z,1.70
2022-11-21T11:28:14.507Z,1.60
2022-11-21T11:30:40.837Z,1.35
2022-11-21T11:33:27.411Z,1.04
2022-11-21T11:35:54.036Z,0.90
2022-11-21T11:38:20.421Z,1.00
2022-11-21T11:40:47.485Z,1.07
2022-11-21T11:43:32.611Z,1.23
2022-11-21T11:46:23.493Z,1.27
2022-11-21T11:49:17.455Z,1.27
2022-11-21T11:51:53.246Z,1.04
2022-11-21T11:54:30.040Z,1.03
2022-11-21T11:56:56.368Z,1.01
2022-11-21T11:59:23.937Z,1.05
2022-11-21T12:01:51.858Z,0.97
2022-11-21T12:04:21.823Z,0.71
2022-11-21T12:08:05.902Z,0.76
2022-11-21T12:09:36.163Z,0.90
2022-11-21T12:12:08.361Z,0.88
2022-11-21T12:14:56.577Z,0.95
2022-11-21T12:17:25.506Z,0.96
2022-11-21T12:19:51.834Z,1.02
2022-11-21T12:22:18.184Z,1.11
2022-11-21T12:24:44.533Z,1.19
2022-11-21T12:27:17.004Z,1.22
2022-11-21T12:29:58.818Z,1.10
2022-11-21T12:32:38.987Z,1.10
2022-11-21T12:35:14.598Z,1.10
2022-11-21T12:37:40.885Z,0.91
2022-11-21T12:40:10.005Z,0.89
2022-11-21T12:42:51.576Z,0.83
2022-11-21T12:45:30.007Z,0.64
2022-11-21T12:48:18.203Z,0.43
2022-11-21T12:51:25.887Z,0.40
2022-11-21T12:54:30.202Z,0.36
2022-11-21T12:56:59.249Z,0.28
2022-11-21T12:59:25.674Z,0.41
2022-11-21T13:01:58.334Z,0.37
2022-11-21T13:04:25.285Z,0.54
2022-11-21T13:06:51.605Z,0.50
2022-11-21T13:09:20.455Z,0.64
2022-11-21T13:11:59.038Z,0.72
2022-11-21T13:14:28.471Z,0.65
2022-11-21T13:17:27.544Z,0.75
2022-11-21T13:19:53.894Z,0.72
2022-11-21T13:22:35.256Z,0.66
2022-11-21T13:25:09.653Z,0.59
2022-11-21T13:27:38.870Z,0.40
2022-11-21T13:30:11.572Z,0.42
2022-11-21T13:32:38.486Z,0.25
2022-11-21T13:35:21.111Z,0.27
2022-11-21T13:37:50.617Z,0.14
2022-11-21T13:40:26.036Z,0.23
2022-11-21T13:43:32.670Z,0.38
2022-11-21T13:45:59.164Z,0.35
2022-11-21T13:48:28.590Z,0.29
2022-11-21T13:51:13.810Z,0.34
2022-11-21T13:53:56.355Z,0.20
2022-11-21T13:56:26.014Z,0.20
2022-11-21T13:58:55.419Z,0.15
2022-11-21T14:01:34.291Z,0.11
2022-11-21T14:04:19.400Z,0.27
2022-11-21T14:06:45.852Z,0.26
2022-11-21T14:09:25.724Z,0.32
2022-11-21T14:11:52.122Z,0.34
2022-11-21T14:14:29.063Z,0.31
2022-11-21T14:17:03.353Z,0.39
2022-11-21T14:19:32.148Z,0.39
2022-11-21T14:21:58.975Z,0.36
2022-11-21T14:24:25.304Z,0.33
2022-11-21T14:26:52.190Z,0.29
2022-11-21T14:29:47.899Z,0.48
2022-11-21T14:32:14.483Z,0.45
2022-11-21T14:34:40.817Z,0.43
2022-11-21T14:39:28.951Z,0.44
2022-11-21T14:41:48.417Z,0.30
2022-11-21T14:44:16.117Z,0.25
2022-11-21T14:46:43.096Z,0.23
2022-11-21T14:49:12.366Z,0.19
2022-11-21T14:51:38.836Z,0.22
2022-11-21T14:54:05.319Z,0.25
2022-11-21T14:56:32.892Z,0.27
2022-11-21T14:59:01.514Z,0.22
2022-11-21T15:01:32.169Z,0.15
2022-11-21T15:04:01.233Z,0.18
2022-11-21T15:06:29.974Z,0.11
2022-11-21T15:10:24.804Z,0.11
2022-11-21T15:11:47.015Z,0.13
2022-11-21T15:14:35.836Z,0.14
2022-11-21T15:17:04.389Z,0.15
2022-11-21T15:19:32.668Z,0.10
2022-11-21T15:22:01.253Z,0.09
2022-11-21T15:24:33.694Z,0.12
2022-11-21T15:27:00.836Z,0.17
2022-11-21T15:29:27.462Z,0.24
2022-11-21T15:32:15.845Z,0.33
2022-11-21T15:34:43.163Z,0.25
2022-11-21T15:37:15.457Z,0.27
2022-11-21T15:39:45.905Z,0.21
2022-11-21T15:42:31.161Z,0.24
2022-11-21T15:45:01.692Z,0.18
2022-11-21T15:47:28.636Z,0.20
2022-11-21T15:49:55.190Z,0.26
2022-11-21T15:52:21.669Z,0.19
2022-11-21T15:54:48.365Z,0.16
2022-11-21T15:57:16.784Z,0.10
2022-11-21T15:59:43.640Z,0.03
2022-11-21T16:02:12.452Z,-0.05
2022-11-21T16:04:38.987Z,-0.01
2022-11-21T16:07:05.564Z,0.05
2022-11-21T16:09:32.115Z,0.06
2022-11-21T16:11:58.586Z,0.14
2022-11-21T16:14:25.079Z,0.15
2022-11-21T16:16:51.596Z,0.14
2022-11-21T16:19:18.099Z,0.24
2022-11-21T16:21:44.617Z,0.26
2022-11-21T16:24:11.159Z,0.25
2022-11-21T16:26:37.808Z,0.22
2022-11-21T16:29:07.361Z,0.17
2022-11-21T16:31:34.422Z,0.27
2022-11-21T16:34:01.074Z,0.28
2022-11-21T16:36:31.170Z,0.25
2022-11-21T16:39:00.590Z,0.33
2022-11-21T16:41:30.079Z,0.39
2022-11-21T16:43:56.626Z,0.41
2022-11-21T16:46:24.440Z,0.38
2022-11-21T16:49:01.693Z,0.38
2022-11-21T16:51:28.444Z,0.37
2022-11-21T16:53:54.951Z,0.43
2022-11-21T16:56:21.466Z,0.40
2022-11-21T16:58:48.011Z,0.42
2022-11-21T17:01:18.591Z,0.46
2022-11-21T17:03:47.210Z,0.50
2022-11-21T17:06:15.027Z,0.47
2022-11-21T17:08:41.514Z,0.52
2022-11-21T17:11:17.029Z,0.54
2022-11-21T17:13:43.966Z,0.52
2022-11-21T17:16:11.141Z,0.46
2022-11-21T17:18:37.799Z,0.49
2022-11-21T17:21:08.950Z,0.48
2022-11-21T17:23:36.554Z,0.50
2022-11-21T17:26:07.642Z,0.52
2022-11-21T17:28:34.466Z,0.52
2022-11-21T17:31:05.924Z,0.54
2022-11-21T17:33:32.413Z,0.51
2022-11-21T17:35:58.891Z,0.54
2022-11-21T17:38:25.384Z,0.48
2022-11-21T17:41:01.954Z,0.42
2022-11-21T17:43:28.835Z,0.39
2022-11-21T17:46:00.994Z,0.43
2022-11-21T17:48:29.330Z,0.41
2022-11-21T17:51:04.062Z,0.42
2022-11-21T17:53:31.877Z,0.40
2022-11-21T17:55:59.758Z,0.50
2022-11-21T17:58:27.417Z,0.48
2022-11-21T18:00:59.531Z,0.51
2022-11-21T18:03:26.513Z,0.48
2022-11-21T18:06:00.626Z,0.56
2022-11-21T18:08:29.862Z,0.54
2022-11-21T18:10:56.355Z,0.54
2022-11-21T18:13:22.825Z,0.56
2022-11-21T18:15:49.299Z,0.48
2022-11-21T18:18:15.769Z,0.45
2022-11-21T18:20:42.282Z,0.45
2022-11-21T18:23:08.793Z,0.48
2022-11-21T18:25:38.433Z,0.37
2022-11-21T18:28:04.953Z,0.47
2022-11-21T18:30:31.893Z,0.40
2022-11-21T18:32:58.420Z,0.51
2022-11-21T18:35:26.346Z,0.48
2022-11-21T18:37:52.950Z,0.53
2022-11-21T18:40:19.441Z,0.50
2022-11-21T18:42:47.100Z,0.53
2022-11-21T18:45:13.646Z,0.49
2022-11-21T18:47:41.158Z,0.52
2022-11-21T18:50:07.833Z,0.53
2022-11-21T18:52:35.100Z,0.47
2022-11-21T18:55:01.577Z,0.55
2022-11-21T18:57:28.047Z,0.60
2022-11-21T18:59:54.626Z,0.57
2022-11-21T19:02:21.142Z,0.68
2022-11-21T19:04:47.742Z,0.61
2022-11-21T19:07:14.264Z,0.65
2022-11-21T19:09:41.558Z,0.65
2022-11-21T19:12:08.015Z,0.64
2022-11-21T19:14:34.492Z,0.63
2022-11-21T19:17:00.971Z,0.66
2022-11-21T19:19:36.489Z,0.64
2022-11-21T19:22:04.594Z,0.57
2022-11-21T19:24:31.189Z,0.56
2022-11-21T19:26:57.678Z,0.59
2022-11-21T19:29:24.191Z,0.65
2022-11-21T19:31:50.854Z,0.70
2022-11-21T19:34:17.411Z,0.76
2022-11-21T19:36:44.418Z,0.72
2022-11-21T19:39:11.217Z,0.61
2022-11-21T19:41:37.698Z,0.72
2022-11-21T19:44:04.217Z,0.74
2022-11-21T19:46:35.592Z,0.72
2022-11-21T19:49:02.159Z,0.77
2022-11-21T19:51:36.343Z,0.79
2022-11-21T19:54:03.665Z,0.74
2022-11-21T19:56:30.176Z,0.76
2022-11-21T19:58:56.853Z,0.78
2022-11-21T20:01:24.992Z,0.79
2022-11-21T20:03:56.051Z,0.79
2022-11-21T20:06:30.717Z,0.85
2022-11-21T20:09:02.192Z,0.78
2022-11-21T20:11:29.595Z,0.85
2022-11-21T20:13:56.101Z,0.91
2022-11-21T20:16:32.454Z,0.86
2022-11-21T20:19:00.390Z,0.80
2022-11-21T20:21:26.912Z,0.84
2022-11-21T20:23:53.502Z,0.84
2022-11-21T20:26:20.564Z,0.84
2022-11-21T20:28:47.127Z,0.82
2022-11-21T20:31:15.100Z,0.90
2022-11-21T20:33:43.083Z,0.87
2022-11-21T20:36:17.247Z,0.85
2022-11-21T20:38:44.697Z,0.88
2022-11-21T20:41:11.209Z,0.88
2022-11-21T20:44:24.526Z,0.89
2022-11-21T20:46:25.086Z,0.91
2022-11-21T20:48:51.586Z,0.90
2022-11-21T20:52:31.505Z,0.88
2022-11-21T20:54:04.764Z,0.90
2022-11-21T20:56:35.085Z,0.92
2022-11-21T20:59:01.652Z,0.91
2022-11-21T21:01:28.550Z,0.92
2022-11-21T21:03:55.231Z,0.90
2022-11-21T21:06:23.944Z,0.91
2022-11-21T21:08:50.961Z,0.93
2022-11-21T21:11:44.596Z,0.90
2022-11-21T21:14:05.636Z,0.95
2022-11-21T21:16:34.385Z,0.87
2022-11-21T21:19:00.922Z,0.95
2022-11-21T21:21:28.554Z,1.03
2022-11-21T21:23:56.894Z,0.93
2022-11-21T21:26:25.191Z,0.96
2022-11-21T21:28:52.487Z,0.95
2022-11-21T21:31:20.195Z,1.01
2022-11-21T21:33:46.720Z,1.02
2022-11-21T21:36:18.164Z,1.08
2022-11-21T21:38:45.588Z,0.99
2022-11-21T21:41:13.512Z,0.94
2022-11-21T21:43:40.266Z,1.02
2022-11-21T21:46:10.734Z,1.01
2022-11-21T21:48:37.902Z,1.00
2022-11-21T21:51:18.080Z,1.00
2022-11-21T21:53:44.863Z,0.95
2022-11-21T21:56:11.732Z,0.88
2022-11-21T21:58:40.751Z,0.99
2022-11-21T22:01:07.998Z,0.93
2022-11-21T22:03:34.582Z,0.98
2022-11-21T22:06:02.568Z,0.90
2022-11-21T22:08:30.084Z,0.90
2022-11-21T22:11:07.411Z,0.97
2022-11-21T22:13:34.077Z,0.83
2022-11-21T22:16:00.702Z,0.85
2022-11-21T22:18:27.324Z,0.83
2022-11-21T22:20:53.941Z,0.84
2022-11-21T22:23:20.474Z,0.90
2022-11-21T22:25:46.975Z,0.90
2022-11-21T22:28:13.490Z,0.88
2022-11-21T22:30:40.285Z,0.92
2022-11-21T22:33:06.771Z,0.94
2022-11-21T22:35:33.719Z,1.09
2022-11-21T22:38:00.296Z,1.09
2022-11-21T22:40:27.020Z,1.12
2022-11-21T22:42:53.616Z,1.06
2022-11-21T22:45:20.111Z,1.11
2022-11-21T22:47:48.091Z,1.10
2022-11-21T22:50:15.476Z,1.04
2022-11-21T22:52:42.062Z,1.03
2022-11-21T22:55:08.960Z,1.11
2022-11-21T22:57:35.444Z,1.13
2022-11-21T23:00:02.312Z,1.24
2022-11-21T23:02:28.815Z,1.25
2022-11-21T23:04:55.291Z,1.19
2022-11-21T23:07:21.799Z,1.21
2022-11-21T23:09:48.316Z,1.14
2022-11-21T23:12:14.812Z,1.14
2022-11-21T23:14:41.296Z,1.13
2022-11-21T23:17:07.770Z,1.19
2022-11-21T23:19:34.238Z,1.13
2022-11-21T23:22:00.727Z,1.08
2022-11-21T23:24:27.275Z,1.10
2022-11-21T23:26:53.856Z,1.14
2022-11-21T23:29:20.325Z,1.04
2022-11-21T23:31:46.819Z,1.02
2022-11-21T23:34:13.291Z,0.96
2022-11-21T23:36:40.225Z,1.07
2022-11-21T23:39:06.719Z,1.10
2022-11-21T23:41:33.273Z,1.02
2022-11-21T23:43:59.894Z,1.06
2022-11-21T23:46:27.426Z,1.02
2022-11-21T23:48:53.914Z,0.98
2022-11-21T23:51:20.394Z,1.00
2022-11-21T23:53:46.866Z,0.96
2022-11-21T23:56:13.362Z,0.92
2022-11-21T23:58:39.834Z,0.89
